Time;durP1;ratioP1;P1;durP2;ratioP2;P2;SDS_P1;SDS_P2;PMS_P1;PMS_P2;Temp;Humidity;BMP_temperature;BMP_pressure;BME280_temperature;BME280_humidity;BME280_pressure;Samples;Min_cycle;Max_cycle;Signal;HPM_P1;HPM_P2
2023/06/13 00:00:05;;;;;;;20.25;6.78;;;13.30;98.30;;;;;;5073712;28;20052;-76
2023/06/13 00:02:34;;;;;;;11.40;6.25;;;13.30;99.80;;;;;;5072317;28;20053;-76
2023/06/13 00:05:03;;;;;;;12.45;5.72;;;13.30;99.90;;;;;;5071187;28;20160;-76
2023/06/13 00:07:32;;;;;;;17.17;5.78;;;13.30;99.90;;;;;;5067798;28;20048;-76
2023/06/13 00:10:00;;;;;;;14.70;6.30;;;13.30;99.90;;;;;;5055388;28;20059;-76
2023/06/13 00:12:27;;;;;;;17.23;6.90;;;13.20;99.90;;;;;;5070705;28;20048;-76
2023/06/13 00:14:55;;;;;;;16.60;6.03;;;13.20;99.90;;;;;;5071034;28;20493;-76
2023/06/13 00:17:25;;;;;;;14.43;6.00;;;13.20;99.90;;;;;;5069172;28;20048;-77
2023/06/13 00:19:54;;;;;;;17.50;6.57;;;13.10;99.90;;;;;;5072980;28;20045;-76
2023/06/13 00:22:22;;;;;;;18.10;7.25;;;13.00;99.90;;;;;;5071649;28;20056;-76
2023/06/13 00:24:51;;;;;;;17.77;6.30;;;13.00;99.90;;;;;;5066832;28;20417;-76
2023/06/13 00:27:18;;;;;;;15.98;6.07;;;13.00;99.90;;;;;;5070923;28;20101;-76
2023/06/13 00:29:45;;;;;;;18.23;6.60;;;12.90;99.90;;;;;;5088601;28;20048;-76
2023/06/13 00:32:13;;;;;;;19.80;6.78;;;12.90;99.90;;;;;;5070599;28;20048;-76
2023/06/13 00:34:43;;;;;;;19.30;6.95;;;12.80;99.90;;;;;;5086295;28;20463;-76
2023/06/13 00:37:13;;;;;;;22.77;6.68;;;12.80;99.90;;;;;;5088556;28;20612;-77
2023/06/13 00:39:41;;;;;;;17.00;6.63;;;12.70;99.90;;;;;;5071788;28;20059;-77
2023/06/13 00:42:10;;;;;;;25.02;6.40;;;12.70;99.90;;;;;;5070816;28;20055;-77
2023/06/13 00:44:37;;;;;;;20.23;6.82;;;12.70;99.90;;;;;;5071194;28;20045;-76
2023/06/13 00:47:06;;;;;;;17.85;7.72;;;12.70;99.90;;;;;;5054730;28;20044;-77
2023/06/13 00:49:34;;;;;;;17.45;6.68;;;12.70;99.90;;;;;;5053356;28;20098;-76
2023/06/13 00:52:05;;;;;;;20.30;7.13;;;12.60;99.90;;;;;;5050043;28;20040;-76
2023/06/13 00:54:36;;;;;;;19.08;7.25;;;12.60;99.90;;;;;;5071403;28;20090;-76
2023/06/13 00:57:05;;;;;;;21.17;6.72;;;12.60;99.90;;;;;;5054859;28;20509;-76
2023/06/13 00:59:34;;;;;;;19.20;6.78;;;12.50;99.90;;;;;;5069994;28;20049;-76
2023/06/13 01:02:04;;;;;;;16.75;6.70;;;12.50;99.90;;;;;;5067621;28;20048;-76
2023/06/13 01:04:34;;;;;;;19.10;6.65;;;12.50;99.90;;;;;;5072193;28;20040;-76
2023/06/13 01:07:10;;;;;;;14.55;6.45;;;12.50;99.90;;;;;;5070205;28;20040;-76
2023/06/13 01:09:41;;;;;;;12.15;6.40;;;12.50;99.90;;;;;;5070412;28;20045;-77
2023/06/13 01:12:18;;;;;;;19.45;6.57;;;12.50;99.90;;;;;;5053443;28;20052;-76
2023/06/13 01:14:56;;;;;;;19.17;7.00;;;12.50;99.90;;;;;;5051264;28;20106;-76
2023/06/13 01:17:33;;;;;;;15.15;6.88;;;12.40;99.90;;;;;;5066009;28;20079;-76
2023/06/13 01:20:09;;;;;;;22.45;7.38;;;12.40;99.90;;;;;;5062789;28;20053;-76
2023/06/13 01:22:45;;;;;;;23.02;6.82;;;12.40;99.90;;;;;;5051887;28;20052;-76
2023/06/13 01:25:21;;;;;;;16.77;6.60;;;12.40;99.90;;;;;;5063736;28;20058;-76
2023/06/13 01:27:54;;;;;;;21.17;8.13;;;12.30;99.90;;;;;;5070445;28;20500;-76
2023/06/13 01:30:22;;;;;;;12.90;6.25;;;12.30;99.90;;;;;;5070829;28;20505;-76
2023/06/13 01:32:53;;;;;;;21.00;7.32;;;12.30;99.90;;;;;;5070347;28;20053;-76
2023/06/13 01:35:22;;;;;;;25.02;7.18;;;12.30;99.90;;;;;;5067146;28;20074;-76
2023/06/13 01:37:50;;;;;;;22.27;7.40;;;12.30;99.90;;;;;;5071215;28;20517;-76
2023/06/13 01:40:18;;;;;;;14.18;6.60;;;12.30;99.90;;;;;;5071407;28;20075;-76
2023/06/13 01:42:47;;;;;;;25.52;6.65;;;12.30;99.90;;;;;;5080036;28;20045;-77
2023/06/13 01:45:17;;;;;;;17.65;6.47;;;12.30;99.90;;;;;;5051677;28;20463;-77
2023/06/13 01:47:54;;;;;;;23.02;6.78;;;12.30;99.90;;;;;;5050232;28;20067;-76
2023/06/13 01:50:29;;;;;;;17.00;6.43;;;12.30;99.90;;;;;;5033656;28;20139;-76
2023/06/13 01:53:06;;;;;;;24.60;8.45;;;12.30;99.90;;;;;;5064001;28;20459;-77
2023/06/13 01:55:45;;;;;;;17.55;7.07;;;12.30;99.90;;;;;;5071609;28;20416;-77
2023/06/13 01:58:21;;;;;;;16.50;7.10;;;12.30;99.90;;;;;;5069953;28;20440;-77
2023/06/13 02:00:55;;;;;;;18.38;6.22;;;12.20;99.90;;;;;;5065751;28;20059;-78
2023/06/13 02:03:23;;;;;;;16.27;6.88;;;12.20;99.90;;;;;;5053012;28;20044;-78
2023/06/13 02:05:51;;;;;;;21.45;7.45;;;12.20;99.90;;;;;;5070295;28;20049;-77
2023/06/13 02:08:19;;;;;;;20.60;6.90;;;12.20;99.90;;;;;;5069422;28;20041;-77
2023/06/13 02:10:47;;;;;;;14.65;7.32;;;12.20;99.90;;;;;;5064494;28;20055;-77
2023/06/13 02:13:14;;;;;;;17.90;6.85;;;12.20;99.90;;;;;;5068117;28;20101;-77
2023/06/13 02:15:42;;;;;;;15.27;6.93;;;12.20;99.90;;;;;;5068856;28;20094;-77
2023/06/13 02:18:11;;;;;;;22.80;8.45;;;12.20;99.90;;;;;;5067820;28;20056;-76
2023/06/13 02:20:40;;;;;;;15.18;6.72;;;12.30;99.90;;;;;;5063803;28;20048;-77
2023/06/13 02:23:08;;;;;;;17.63;7.13;;;12.30;99.90;;;;;;5052155;28;20044;-77
2023/06/13 02:25:35;;;;;;;21.98;7.85;;;12.30;99.90;;;;;;5068020;28;20047;-77
2023/06/13 02:28:03;;;;;;;13.68;6.70;;;12.30;99.90;;;;;;5064579;28;20058;-77
2023/06/13 02:30:30;;;;;;;17.70;7.55;;;12.40;99.90;;;;;;5065534;28;20048;-77
2023/06/13 02:33:02;;;;;;;21.20;7.65;;;12.40;99.90;;;;;;5054181;28;20052;-77
2023/06/13 02:35:31;;;;;;;13.77;7.43;;;12.40;99.90;;;;;;5071941;28;20048;-77
2023/06/13 02:37:58;;;;;;;22.08;8.23;;;12.40;99.90;;;;;;5066419;28;20045;-77
2023/06/13 02:40:25;;;;;;;20.83;7.65;;;12.40;99.90;;;;;;5072115;28;20041;-77
2023/06/13 02:42:55;;;;;;;16.88;8.55;;;12.40;99.90;;;;;;5088808;28;20075;-77
2023/06/13 02:45:23;;;;;;;21.85;7.70;;;12.50;99.90;;;;;;5056278;28;20154;-76
2023/06/13 02:47:52;;;;;;;15.27;7.53;;;12.50;99.90;;;;;;5066770;28;20054;-76
2023/06/13 02:50:19;;;;;;;19.30;7.57;;;12.60;99.90;;;;;;5073532;28;20054;-77
2023/06/13 02:52:48;;;;;;;20.88;7.97;;;12.60;99.90;;;;;;5071797;28;20055;-76
2023/06/13 02:55:17;;;;;;;16.27;7.97;;;12.70;99.90;;;;;;5070979;28;20079;-77
2023/06/13 02:57:45;;;;;;;20.85;8.25;;;12.70;99.90;;;;;;5070529;28;20143;-77
2023/06/13 03:00:15;;;;;;;22.30;8.43;;;12.70;99.90;;;;;;5072478;28;20102;-77
2023/06/13 03:02:47;;;;;;;22.30;8.50;;;12.80;99.90;;;;;;5055496;28;20119;-77
2023/06/13 03:05:16;;;;;;;20.58;9.02;;;12.80;99.90;;;;;;5050030;28;20049;-77
2023/06/13 03:07:46;;;;;;;12.32;8.43;;;12.80;99.90;;;;;;5071929;28;20504;-77
2023/06/13 03:10:19;;;;;;;20.15;8.65;;;12.90;99.90;;;;;;5072296;28;20060;-77
2023/06/13 03:12:47;;;;;;;24.60;10.77;;;12.90;99.90;;;;;;5072000;28;20052;-77
2023/06/13 03:15:16;;;;;;;23.20;9.77;;;13.00;99.90;;;;;;5071015;28;20044;-77
2023/06/13 03:17:45;;;;;;;25.73;9.63;;;13.00;99.90;;;;;;5072090;28;20045;-77
2023/06/13 03:20:16;;;;;;;26.55;10.70;;;13.10;99.90;;;;;;5053724;28;20564;-77
2023/06/13 03:22:43;;;;;;;23.25;10.35;;;13.20;99.90;;;;;;5067772;28;20058;-77
2023/06/13 03:25:11;;;;;;;28.35;10.68;;;13.20;99.90;;;;;;5086567;28;20059;-77
2023/06/13 03:27:48;;;;;;;27.88;10.50;;;13.30;99.90;;;;;;5086508;28;20059;-77
2023/06/13 03:30:16;;;;;;;25.75;9.70;;;13.30;99.90;;;;;;5084212;28;20048;-76
2023/06/13 03:32:45;;;;;;;20.05;9.70;;;13.40;99.90;;;;;;5067943;28;20417;-76
2023/06/13 03:35:12;;;;;;;26.67;10.23;;;13.40;99.90;;;;;;5083724;28;20147;-77
2023/06/13 03:37:43;;;;;;;32.08;10.18;;;13.50;99.90;;;;;;5086592;28;20056;-77
2023/06/13 03:40:12;;;;;;;24.60;9.48;;;13.60;99.90;;;;;;5067599;28;20264;-77
2023/06/13 03:42:39;;;;;;;26.27;10.68;;;13.70;99.90;;;;;;5065914;28;20094;-77
2023/06/13 03:45:09;;;;;;;22.52;10.70;;;13.80;99.90;;;;;;5085954;28;20045;-77
2023/06/13 03:47:38;;;;;;;33.45;11.25;;;14.00;99.90;;;;;;5086721;28;20677;-77
2023/06/13 03:50:08;;;;;;;27.27;11.40;;;14.00;99.90;;;;;;5070296;28;20120;-77
2023/06/13 03:52:35;;;;;;;23.15;10.27;;;14.10;99.90;;;;;;5070171;28;20045;-77
2023/06/13 03:55:03;;;;;;;29.63;11.35;;;14.20;99.90;;;;;;5070372;28;20049;-77
2023/06/13 03:57:33;;;;;;;24.33;11.02;;;14.30;99.90;;;;;;5070304;28;20068;-77
2023/06/13 04:00:01;;;;;;;27.85;10.20;;;14.40;99.90;;;;;;5067562;28;20051;-78
2023/06/13 04:02:33;;;;;;;20.75;9.90;;;14.50;99.90;;;;;;5050335;28;20045;-79
2023/06/13 04:05:00;;;;;;;27.35;11.27;;;14.50;99.90;;;;;;5069322;28;20044;-79
2023/06/13 04:07:33;;;;;;;28.83;11.23;;;14.60;99.90;;;;;;5083744;28;20044;-78
2023/06/13 04:10:02;;;;;;;;;;;14.70;99.90;;;;;;5068548;28;20067;-80
2023/06/13 04:12:30;;;;;;;29.58;11.43;;;14.80;99.90;;;;;;5066042;28;19928;-79
2023/06/13 04:14:57;;;;;;;30.40;12.70;;;14.90;99.90;;;;;;5069073;28;20416;-80
2023/06/13 04:17:25;;;;;;;23.77;11.05;;;15.10;99.90;;;;;;5068122;28;20405;-80
2023/06/13 04:19:54;;;;;;;36.72;12.13;;;15.20;99.90;;;;;;5070038;28;20048;-79
2023/06/13 04:22:25;;;;;;;24.42;11.65;;;15.40;99.90;;;;;;5068531;28;20052;-79
2023/06/13 04:24:53;;;;;;;21.63;11.98;;;15.50;99.90;;;;;;5083258;28;20409;-80
2023/06/13 04:27:32;;;;;;;26.63;12.10;;;15.70;99.90;;;;;;5048755;28;20143;-80
2023/06/13 04:30:00;;;;;;;30.42;10.48;;;15.90;99.90;;;;;;5063114;28;20051;-80
2023/06/13 04:32:34;;;;;;;21.77;10.85;;;16.20;99.90;;;;;;5066368;28;20077;-79
2023/06/13 04:35:07;;;;;;;30.60;11.25;;;16.30;99.90;;;;;;5069718;28;20504;-79
2023/06/13 04:37:35;;;;;;;;;;;16.50;99.90;;;;;;5067031;28;20040;-77
2023/06/13 04:40:06;;;;;;;68.47;39.15;;;16.60;99.90;;;;;;5067529;28;20209;-77
2023/06/13 04:42:37;;;;;;;41.92;25.55;;;16.80;99.90;;;;;;5066887;28;20559;-77
2023/06/13 04:45:10;;;;;;;27.92;9.68;;;17.00;99.90;;;;;;5066726;28;20090;-76
2023/06/13 04:47:38;;;;;;;;;;;17.10;99.90;;;;;;5067514;28;20053;-77
2023/06/13 04:50:07;;;;;;;19.58;7.32;;;17.30;99.90;;;;;;5068297;28;19931;-77
2023/06/13 04:52:35;;;;;;;21.67;8.25;;;17.40;99.90;;;;;;5065821;28;20044;-77
2023/06/13 04:55:03;;;;;;;15.95;5.95;;;17.60;99.30;;;;;;5061426;28;20148;-78
2023/06/13 04:57:33;;;;;;;13.02;5.72;;;17.70;95.50;;;;;;5068974;28;20068;-78
2023/06/13 05:00:06;;;;;;;19.73;5.80;;;17.90;92.60;;;;;;5066203;28;20102;-78
2023/06/13 05:02:35;;;;;;;;;;;18.00;92.40;;;;;;5066402;28;20067;-77
2023/06/13 05:05:04;;;;;;;12.48;5.70;;;18.20;91.70;;;;;;5065240;28;20492;-78
2023/06/13 05:07:34;;;;;;;13.70;5.00;;;18.30;91.10;;;;;;5066280;28;20096;-78
2023/06/13 05:10:02;;;;;;;9.38;4.47;;;18.40;88.10;;;;;;5082556;28;20405;-77
2023/06/13 05:12:32;;;;;;;13.23;4.70;;;18.60;84.30;;;;;;5067765;28;20064;-77
2023/06/13 05:14:59;;;;;;;11.80;4.50;;;18.70;83.00;;;;;;5071765;28;20047;-78
2023/06/13 05:17:27;;;;;;;7.65;4.10;;;18.80;81.50;;;;;;5066370;28;20068;-79
2023/06/13 05:20:07;;;;;;;6.43;3.75;;;18.90;79.90;;;;;;5071482;28;20049;-77
2023/06/13 05:22:41;;;;;;;11.90;4.35;;;19.20;77.80;;;;;;5047437;28;20044;-79
2023/06/13 05:25:09;;;;;;;4.45;3.95;;;19.30;76.30;;;;;;5069870;28;20059;-77
2023/06/13 05:27:37;;;;;;;12.77;4.32;;;19.50;76.10;;;;;;5070094;28;20534;-78
2023/06/13 05:30:06;;;;;;;10.13;3.55;;;19.80;74.40;;;;;;5068285;28;20094;-78
2023/06/13 05:32:34;;;;;;;14.73;4.53;;;20.00;74.30;;;;;;5067996;28;20382;-78
2023/06/13 05:35:08;;;;;;;11.35;4.22;;;20.20;73.50;;;;;;5069866;28;20040;-78
2023/06/13 05:37:37;;;;;;;14.18;3.95;;;20.40;72.60;;;;;;5067507;28;20052;-78
2023/06/13 05:40:10;;;;;;;8.50;3.78;;;20.70;70.60;;;;;;5064386;28;20493;-75
2023/06/13 05:42:38;;;;;;;10.23;3.47;;;21.00;69.10;;;;;;5068381;28;20044;-78
2023/06/13 05:45:08;;;;;;;9.73;3.28;;;21.50;67.40;;;;;;5066621;28;20040;-78
2023/06/13 05:47:37;;;;;;;9.48;3.65;;;22.00;66.50;;;;;;5066143;28;20094;-75
2023/06/13 05:50:08;;;;;;;10.02;4.63;;;22.50;65.60;;;;;;5064992;28;20402;-75
2023/06/13 05:52:37;;;;;;;12.73;3.75;;;23.00;63.90;;;;;;5066424;28;20048;-77
2023/06/13 05:55:07;;;;;;;7.20;3.47;;;23.50;62.80;;;;;;5047146;28;20064;-76
2023/06/13 05:57:43;;;;;;;9.65;2.65;;;24.00;58.00;;;;;;5065875;28;20044;-77
2023/06/13 06:00:13;;;;;;;7.45;3.20;;;24.40;56.10;;;;;;5044169;28;20104;-77
2023/06/13 06:02:43;;;;;;;8.63;3.17;;;24.50;56.50;;;;;;5065387;28;20394;-76
2023/06/13 06:05:13;;;;;;;6.82;3.10;;;24.90;56.20;;;;;;5067369;28;20582;-77
2023/06/13 06:07:44;;;;;;;9.00;3.20;;;25.20;55.00;;;;;;5061345;28;20431;-77
2023/06/13 06:10:13;;;;;;;7.15;3.72;;;25.80;54.70;;;;;;5078572;28;20508;-76
2023/06/13 06:12:42;;;;;;;8.15;3.67;;;26.20;52.30;;;;;;5067954;28;20106;-76
2023/06/13 06:15:11;;;;;;;7.82;3.55;;;26.40;52.00;;;;;;5068823;28;20163;-76
2023/06/13 06:17:38;;;;;;;11.57;3.40;;;26.40;52.40;;;;;;5066602;28;20068;-76
2023/06/13 06:20:10;;;;;;;10.90;3.88;;;26.80;51.70;;;;;;5074356;28;20079;-77
2023/06/13 06:22:37;;;;;;;;;;;27.10;52.80;;;;;;5076702;28;20051;-76
2023/06/13 06:25:08;;;;;;;16.30;2.90;;;27.20;48.40;;;;;;5068382;28;19957;-77
2023/06/13 06:27:38;;;;;;;7.13;2.90;;;27.20;48.80;;;;;;5064176;28;20053;-79
2023/06/13 06:30:07;;;;;;;8.43;2.67;;;27.30;48.60;;;;;;5065250;28;20041;-77
2023/06/13 06:32:35;;;;;;;9.77;3.28;;;27.50;49.60;;;;;;5069854;28;20052;-78
2023/06/13 06:35:04;;;;;;;9.75;2.95;;;27.90;48.10;;;;;;5065108;28;20548;-77
2023/06/13 06:37:32;;;;;;;11.95;2.85;;;28.30;47.90;;;;;;5065863;28;20440;-77
2023/06/13 06:39:59;;;;;;;6.90;3.30;;;28.50;47.30;;;;;;5058319;28;20415;-76
2023/06/13 06:42:27;;;;;;;9.05;2.97;;;29.00;46.90;;;;;;5050682;28;20481;-76
2023/06/13 06:45:10;;;;;;;7.43;2.65;;;29.20;47.20;;;;;;5059693;28;20037;-77
2023/06/13 06:47:38;;;;;;;12.13;2.80;;;29.50;46.70;;;;;;5069569;28;20041;-77
2023/06/13 06:50:07;;;;;;;5.68;2.90;;;29.80;47.50;;;;;;5069592;28;20062;-76
2023/06/13 06:52:37;;;;;;;6.57;2.90;;;30.00;45.30;;;;;;5049624;28;20430;-78
2023/06/13 06:55:06;;;;;;;5.32;2.97;;;30.30;44.10;;;;;;5068406;28;20504;-78
2023/06/13 06:57:34;;;;;;;5.78;2.17;;;30.40;43.40;;;;;;5051120;28;20059;-77
2023/06/13 07:00:02;;;;;;;3.60;2.40;;;30.10;42.50;;;;;;5050856;28;20480;-78
2023/06/13 07:02:53;;;;;;;;;;;;;;;;;;;;;
2023/06/13 07:05:26;;;;;;;4.93;2.40;;;30.00;43.20;;;;;;5068211;28;20439;-78
2023/06/13 07:07:55;;;;;;;4.28;2.65;;;30.30;42.70;;;;;;5068654;28;20045;-78
2023/06/13 07:10:26;;;;;;;9.88;3.65;;;30.30;42.20;;;;;;5066868;28;20051;-77
2023/06/13 07:12:56;;;;;;;8.55;3.80;;;30.40;42.00;;;;;;5059248;28;20052;-80
2023/06/13 07:15:24;;;;;;;6.25;4.13;;;30.10;42.90;;;;;;5063576;28;20080;-78
2023/06/13 07:17:53;;;;;;;7.00;3.60;;;30.30;42.50;;;;;;5059230;28;20049;-78
2023/06/13 07:20:21;;;;;;;8.85;4.38;;;30.10;42.20;;;;;;5069690;28;20531;-77
2023/06/13 07:22:48;;;;;;;15.13;7.70;;;30.20;42.30;;;;;;5069747;28;20052;-77
2023/06/13 07:25:16;;;;;;;22.95;12.88;;;30.40;41.70;;;;;;5070199;28;20048;-77
2023/06/13 07:27:44;;;;;;;24.85;11.68;;;30.50;41.10;;;;;;5070924;28;20053;-76
2023/06/13 07:30:13;;;;;;;13.70;7.20;;;30.40;41.50;;;;;;5068720;28;20135;-76
2023/06/13 07:32:43;;;;;;;11.57;5.22;;;30.30;41.20;;;;;;5057261;28;20044;-81
2023/06/13 07:35:16;;;;;;;14.68;7.25;;;30.50;41.00;;;;;;5088358;28;20915;-80
2023/06/13 07:37:57;;;;;;;9.07;5.35;;;30.60;40.60;;;;;;5071746;28;20098;-79
2023/06/13 07:40:26;;;;;;;20.63;11.65;;;30.60;41.00;;;;;;5055174;28;20049;-78
2023/06/13 07:42:58;;;;;;;20.95;11.60;;;30.90;40.50;;;;;;5072973;28;20036;-79
2023/06/13 07:45:27;;;;;;;16.90;11.15;;;30.70;40.40;;;;;;5071901;28;20052;-77
2023/06/13 07:47:55;;;;;;;8.65;5.22;;;30.50;41.10;;;;;;5067233;28;20125;-81
2023/06/13 07:50:29;;;;;;;8.38;3.38;;;30.50;40.20;;;;;;5087281;28;20068;-80
2023/06/13 07:52:57;;;;;;;7.38;3.38;;;30.70;39.80;;;;;;5069187;28;20046;-76
2023/06/13 07:55:24;;;;;;;8.25;3.28;;;30.70;40.80;;;;;;5083424;28;20075;-76
2023/06/13 07:57:52;;;;;;;7.47;2.92;;;31.10;40.40;;;;;;5067105;28;20138;-80
2023/06/13 08:00:20;;;;;;;6.60;2.33;;;31.60;40.00;;;;;;5072772;28;20452;-79
2023/06/13 08:02:48;;;;;;;7.50;2.30;;;31.90;39.90;;;;;;5070919;28;20049;-75
2023/06/13 08:05:17;;;;;;;3.08;2.30;;;32.40;39.20;;;;;;5065072;28;20063;-76
2023/06/13 08:07:51;;;;;;;4.38;2.22;;;32.50;37.90;;;;;;5070581;28;20051;-75
2023/06/13 08:10:20;;;;;;;3.17;2.00;;;32.70;38.70;;;;;;5072123;28;20048;-74
2023/06/13 08:12:48;;;;;;;3.05;2.70;;;32.70;38.20;;;;;;5067101;28;20044;-76
2023/06/13 08:15:16;;;;;;;9.90;2.50;;;32.60;38.10;;;;;;5052309;28;20424;-76
2023/06/13 08:17:44;;;;;;;4.40;2.10;;;32.20;37.50;;;;;;5074694;28;20519;-76
2023/06/13 08:20:13;;;;;;;4.28;2.40;;;31.80;38.20;;;;;;5068319;28;20106;-76
2023/06/13 08:22:41;;;;;;;4.63;2.50;;;31.70;38.80;;;;;;5072835;28;20032;-75
2023/06/13 08:25:10;;;;;;;2.40;2.15;;;32.00;38.40;;;;;;5070140;28;20570;-76
2023/06/13 08:27:38;;;;;;;7.70;2.60;;;32.10;38.40;;;;;;5062504;28;20132;-76
2023/06/13 08:30:08;;;;;;;7.18;2.13;;;32.40;38.10;;;;;;5068600;28;20056;-77
2023/06/13 08:32:36;;;;;;;3.42;2.75;;;32.60;38.40;;;;;;5070653;28;20139;-77
2023/06/13 08:35:04;;;;;;;10.93;2.75;;;32.70;39.10;;;;;;5057240;28;20053;-76
2023/06/13 08:37:38;;;;;;;5.13;2.40;;;32.90;37.80;;;;;;5056721;28;20072;-77
2023/06/13 08:40:11;;;;;;;4.95;2.28;;;32.80;38.00;;;;;;5060772;28;20049;-76
2023/06/13 08:42:39;;;;;;;4.38;2.65;;;33.00;37.90;;;;;;5057543;28;20053;-76
2023/06/13 08:45:08;;;;;;;7.25;2.33;;;33.30;37.40;;;;;;5061511;28;20052;-76
2023/06/13 08:47:38;;;;;;;6.32;2.75;;;33.70;37.00;;;;;;5069023;28;20412;-76
2023/06/13 08:50:07;;;;;;;5.10;2.20;;;34.30;37.10;;;;;;5055347;28;20041;-77
2023/06/13 08:52:40;;;;;;;7.03;2.58;;;34.60;36.10;;;;;;5064579;28;20044;-78
2023/06/13 08:55:13;;;;;;;2.35;2.20;;;34.90;36.90;;;;;;5069782;28;20064;-78
2023/06/13 08:57:45;;;;;;;2.45;2.25;;;35.40;36.80;;;;;;5068125;28;20063;-77
2023/06/13 09:00:16;;;;;;;4.25;2.63;;;35.80;35.60;;;;;;5067330;28;20067;-78
2023/06/13 09:02:47;;;;;;;4.82;2.45;;;35.70;35.10;;;;;;5066150;28;20412;-78
2023/06/13 09:05:17;;;;;;;4.00;2.70;;;35.60;33.50;;;;;;5070229;28;20062;-78
2023/06/13 09:07:46;;;;;;;5.57;2.55;;;35.50;33.70;;;;;;5065084;28;20048;-76
2023/06/13 09:10:16;;;;;;;3.67;2.60;;;35.50;35.20;;;;;;5069521;28;20052;-80
2023/06/13 09:12:45;;;;;;;4.78;2.30;;;35.60;33.70;;;;;;5061063;28;20059;-77
2023/06/13 09:15:15;;;;;;;2.20;2.05;;;35.30;34.00;;;;;;5065923;28;20056;-80
2023/06/13 09:17:43;;;;;;;4.55;2.30;;;35.50;35.80;;;;;;5064537;28;20082;-79
2023/06/13 09:20:11;;;;;;;5.20;2.17;;;35.70;33.80;;;;;;5075945;28;20073;-78
2023/06/13 09:22:39;;;;;;;4.60;2.60;;;35.80;36.50;;;;;;5059673;28;20094;-78
2023/06/13 09:25:09;;;;;;;2.50;2.30;;;36.30;33.80;;;;;;5076578;28;20101;-77
2023/06/13 09:27:45;;;;;;;7.13;2.40;;;36.70;33.60;;;;;;5065655;28;20048;-78
2023/06/13 09:30:16;;;;;;;2.75;2.45;;;37.00;34.90;;;;;;5068115;28;20139;-79
2023/06/13 09:32:49;;;;;;;12.13;3.08;;;37.30;34.60;;;;;;5053178;28;20037;-78
2023/06/13 09:35:17;;;;;;;5.30;3.08;;;37.50;34.40;;;;;;5065820;28;20041;-78
2023/06/13 09:37:47;;;;;;;6.68;2.53;;;37.70;35.10;;;;;;5064852;28;20079;-79
2023/06/13 09:40:16;;;;;;;3.08;2.63;;;37.90;34.40;;;;;;5067584;28;20056;-77
2023/06/13 09:42:46;;;;;;;4.65;2.80;;;38.00;34.80;;;;;;5056757;28;20492;-77
2023/06/13 09:45:14;;;;;;;3.58;2.47;;;37.90;33.80;;;;;;5066410;28;20560;-77
2023/06/13 09:47:43;;;;;;;5.63;2.25;;;38.00;33.60;;;;;;5070820;28;20044;-77
2023/06/13 09:50:14;;;;;;;2.97;2.40;;;38.20;34.40;;;;;;5068961;28;20528;-76
2023/06/13 09:52:46;;;;;;;4.40;2.30;;;38.30;33.70;;;;;;5080624;28;20045;-77
2023/06/13 09:55:13;;;;;;;3.38;2.35;;;38.50;33.30;;;;;;5078833;28;20110;-77
2023/06/13 09:57:42;;;;;;;5.68;2.22;;;38.60;33.30;;;;;;5068499;28;20409;-78
2023/06/13 10:00:14;;;;;;;2.13;1.83;;;38.80;34.20;;;;;;5068115;28;20037;-78
2023/06/13 10:02:45;;;;;;;5.10;2.55;;;38.90;33.90;;;;;;5071296;28;20064;-75
2023/06/13 10:05:13;;;;;;;7.20;2.50;;;38.90;32.80;;;;;;5067504;28;20052;-76
2023/06/13 10:07:41;;;;;;;6.45;2.28;;;38.80;33.90;;;;;;5051465;28;20051;-76
2023/06/13 10:10:09;;;;;;;4.97;2.75;;;38.70;34.20;;;;;;5068131;28;20047;-77
2023/06/13 10:12:45;;;;;;;5.75;2.33;;;38.80;33.70;;;;;;5081909;28;20056;-77
2023/06/13 10:15:21;;;;;;;3.78;2.45;;;38.80;33.90;;;;;;5069182;28;20114;-77
2023/06/13 10:17:49;;;;;;;8.32;3.22;;;38.60;33.30;;;;;;5066367;28;20052;-78
2023/06/13 10:20:18;;;;;;;4.47;2.92;;;38.80;34.50;;;;;;5068212;28;20042;-76
2023/06/13 10:22:46;;;;;;;4.07;2.63;;;39.00;34.10;;;;;;5079834;28;20429;-77
2023/06/13 10:25:19;;;;;;;4.47;2.47;;;39.10;33.60;;;;;;5070197;28;20060;-77
2023/06/13 10:27:53;;;;;;;6.90;3.30;;;39.00;33.60;;;;;;5066357;28;20082;-77
2023/06/13 10:30:40;;;;;;;4.28;2.67;;;39.10;32.70;;;;;;5064748;28;20087;-75
2023/06/13 10:33:54;;;;;;;5.22;3.10;;;39.10;32.90;;;;;;5051515;28;20075;-80
2023/06/13 10:36:50;;;;;;;14.65;3.15;;;39.20;31.50;;;;;;5052663;28;20044;-77
2023/06/13 10:39:55;;;;;;;5.53;2.55;;;39.10;32.80;;;;;;5062288;28;20047;-75
2023/06/13 10:42:31;;;;;;;4.32;2.90;;;39.10;33.00;;;;;;5063126;28;20052;-79
2023/06/13 10:45:04;;;;;;;6.55;2.30;;;39.30;34.00;;;;;;5067196;28;20467;-77
2023/06/13 10:47:38;;;;;;;5.28;2.60;;;39.50;33.40;;;;;;5067015;28;20040;-76
2023/06/13 10:50:08;;;;;;;9.35;3.10;;;39.80;33.20;;;;;;5062704;28;20040;-76
2023/06/13 10:52:36;;;;;;;3.78;2.53;;;40.20;32.70;;;;;;5069369;28;20127;-75
2023/06/13 10:55:04;;;;;;;7.50;2.97;;;40.30;33.10;;;;;;5072336;28;20060;-78
2023/06/13 10:57:49;;;;;;;2.88;2.47;;;40.30;32.20;;;;;;5072558;28;20054;-75
2023/06/13 11:00:29;;;;;;;8.27;3.17;;;40.30;32.30;;;;;;5084551;28;20263;-76
2023/06/13 11:03:08;;;;;;;8.63;3.03;;;40.50;31.80;;;;;;5072860;28;20048;-76
2023/06/13 11:05:47;;;;;;;2.70;2.50;;;40.70;31.80;;;;;;5069514;28;20083;-76
2023/06/13 11:08:16;;;;;;;2.85;2.60;;;40.80;30.80;;;;;;5068353;28;20106;-77
2023/06/13 11:10:47;;;;;;;6.18;2.92;;;40.90;31.40;;;;;;5071772;28;20044;-77
2023/06/13 11:13:21;;;;;;;6.45;2.83;;;40.70;31.00;;;;;;5069054;28;20057;-74
2023/06/13 11:15:50;;;;;;;6.15;2.95;;;40.80;31.80;;;;;;5072771;28;20133;-74
2023/06/13 11:18:37;;;;;;;5.20;2.88;;;41.00;32.80;;;;;;5068727;28;20448;-75
2023/06/13 11:21:04;;;;;;;2.53;2.00;;;41.30;31.10;;;;;;5069909;28;20606;-75
2023/06/13 11:23:50;;;;;;;4.85;2.50;;;41.10;30.10;;;;;;5070946;28;20067;-77
2023/06/13 11:26:22;;;;;;;4.90;2.80;;;41.10;30.80;;;;;;5069951;28;20566;-75
2023/06/13 11:28:51;;;;;;;3.95;3.08;;;41.30;31.60;;;;;;5073632;28;20079;-76
2023/06/13 11:31:20;;;;;;;3.95;2.58;;;41.40;31.90;;;;;;5072538;28;20048;-75
2023/06/13 11:33:52;;;;;;;2.85;2.53;;;41.40;30.80;;;;;;5070809;28;20041;-75
2023/06/13 11:36:20;;;;;;;5.57;2.50;;;41.50;31.20;;;;;;5066285;28;20447;-78
2023/06/13 11:38:57;;;;;;;7.30;2.97;;;41.60;31.40;;;;;;5063709;28;20057;-79
2023/06/13 11:41:25;;;;;;;4.80;2.40;;;41.70;31.20;;;;;;5069802;28;20641;-79
2023/06/13 11:43:52;;;;;;;7.05;3.10;;;41.40;30.10;;;;;;5067195;28;20047;-78
2023/06/13 11:46:20;;;;;;;5.20;2.95;;;41.10;30.60;;;;;;5069680;28;20094;-78
2023/06/13 11:48:55;;;;;;;6.03;3.00;;;40.80;31.90;;;;;;5087263;28;20055;-78
2023/06/13 11:51:23;;;;;;;8.50;2.70;;;40.90;31.30;;;;;;5073761;28;20045;-79
2023/06/13 11:53:52;;;;;;;6.38;2.85;;;41.40;31.60;;;;;;5065193;28;20048;-79
2023/06/13 11:56:22;;;;;;;9.20;3.13;;;41.60;31.70;;;;;;5062594;28;20055;-77
2023/06/13 11:58:50;;;;;;;5.57;2.78;;;41.60;30.40;;;;;;5057858;28;20177;-77
2023/06/13 12:01:20;;;;;;;9.85;2.60;;;41.80;31.30;;;;;;5049591;28;20044;-79
2023/06/13 12:03:50;;;;;;;4.45;2.83;;;41.70;31.10;;;;;;5071143;28;20052;-78
2023/06/13 12:06:19;;;;;;;4.10;2.75;;;41.70;31.40;;;;;;5071499;28;20052;-78
2023/06/13 12:08:48;;;;;;;8.48;2.67;;;41.90;32.20;;;;;;5072778;28;20068;-76
2023/06/13 12:11:17;;;;;;;4.40;2.45;;;41.90;31.20;;;;;;5077274;28;20055;-75
2023/06/13 12:13:54;;;;;;;4.93;2.65;;;41.70;30.90;;;;;;5064067;28;20056;-76
2023/06/13 12:16:27;;;;;;;5.57;2.60;;;41.70;31.20;;;;;;5076992;28;20048;-76
2023/06/13 12:18:56;;;;;;;4.22;2.80;;;41.70;30.60;;;;;;5067701;28;20040;-75
2023/06/13 12:21:28;;;;;;;3.45;2.42;;;41.80;30.50;;;;;;5069539;28;20051;-74
2023/06/13 12:23:57;;;;;;;4.43;2.80;;;41.80;31.30;;;;;;5071338;28;20052;-76
2023/06/13 12:26:26;;;;;;;3.13;2.45;;;41.90;31.10;;;;;;5066530;28;20103;-77
2023/06/13 12:28:56;;;;;;;8.25;2.45;;;42.10;30.90;;;;;;5064562;28;20041;-75
2023/06/13 12:31:36;;;;;;;3.03;2.25;;;42.40;30.80;;;;;;5071419;28;20052;-76
2023/06/13 12:34:16;;;;;;;2.30;2.10;;;42.40;30.60;;;;;;5066899;28;20036;-76
2023/06/13 12:36:50;;;;;;;7.88;2.40;;;42.30;30.80;;;;;;5070297;28;20052;-79
2023/06/13 12:39:18;;;;;;;6.15;2.47;;;42.20;31.20;;;;;;5070077;28;20496;-79
2023/06/13 12:41:49;;;;;;;4.50;2.60;;;42.20;30.70;;;;;;5052040;28;20139;-79
2023/06/13 12:44:19;;;;;;;3.53;2.58;;;42.20;29.80;;;;;;5065544;28;20045;-80
2023/06/13 12:46:47;;;;;;;4.18;2.50;;;42.20;30.90;;;;;;5085777;28;20044;-75
2023/06/13 12:49:19;;;;;;;4.50;2.58;;;42.10;30.10;;;;;;5070491;28;20079;-76
2023/06/13 12:51:49;;;;;;;5.65;2.58;;;42.20;30.60;;;;;;5070343;28;20055;-78
2023/06/13 12:54:19;;;;;;;3.03;2.60;;;42.20;30.30;;;;;;5065445;28;20044;-79
2023/06/13 12:56:56;;;;;;;4.95;2.40;;;42.10;31.00;;;;;;5067871;28;20389;-77
2023/06/13 12:59:35;;;;;;;4.10;2.75;;;42.00;31.70;;;;;;5070048;28;20495;-79